createdAt,value
2023-05-04T00:00:11.665Z,6.88
2023-05-04T00:02:38.720Z,6.18
2023-05-04T00:05:06.512Z,6.88
2023-05-04T00:07:33.467Z,6.20
2023-05-04T00:10:01.379Z,6.40
2023-05-04T00:12:28.915Z,6.53
2023-05-04T00:14:55.968Z,6.70
2023-05-04T00:17:23.015Z,6.88
2023-05-04T00:19:50.512Z,6.95
2023-05-04T00:22:17.426Z,7.03
2023-05-04T00:24:44.854Z,7.20
2023-05-04T00:27:11.972Z,7.25
2023-05-04T00:29:38.975Z,6.80
2023-05-04T00:32:06.437Z,6.93
2023-05-04T00:34:36.478Z,6.82
2023-05-04T00:37:03.526Z,7.10
2023-05-04T00:39:30.616Z,7.10
2023-05-04T00:41:57.526Z,7.18
2023-05-04T00:44:24.501Z,7.28
2023-05-04T00:46:55.608Z,7.07
2023-05-04T00:49:23.248Z,7.00
2023-05-04T00:51:51.617Z,6.90
2023-05-04T00:54:19.792Z,7.20
2023-05-04T00:56:48.009Z,6.75
2023-05-04T00:59:15.166Z,6.75
2023-05-04T01:01:42.309Z,6.82
2023-05-04T01:04:09.939Z,7.13
2023-05-04T01:06:52.936Z,7.10
2023-05-04T01:09:39.625Z,7.10
2023-05-04T01:12:11.851Z,6.72
2023-05-04T01:14:39.922Z,7.18
2023-05-04T01:17:08.579Z,6.95
2023-05-04T01:19:35.909Z,6.65
2023-05-04T01:22:03.040Z,6.80
2023-05-04T01:24:31.644Z,6.50
2023-05-04T01:27:08.912Z,7.20
2023-05-04T01:29:42.765Z,6.95
2023-05-04T01:32:12.152Z,7.13
2023-05-04T01:34:40.760Z,6.55
2023-05-04T01:37:08.871Z,6.80
2023-05-04T01:39:35.931Z,6.65
2023-05-04T01:42:02.958Z,6.68
2023-05-04T01:44:29.955Z,6.82
2023-05-04T01:46:57.188Z,6.82
2023-05-04T01:49:24.139Z,7.28
2023-05-04T01:51:51.103Z,6.75
2023-05-04T01:54:18.069Z,6.35
2023-05-04T01:56:45.012Z,6.80
2023-05-04T01:59:12.067Z,6.53
2023-05-04T02:01:39.019Z,6.72
2023-05-04T02:04:06.241Z,6.10
2023-05-04T02:06:33.438Z,6.80
2023-05-04T02:09:00.531Z,6.47
2023-05-04T02:11:27.488Z,6.50
2023-05-04T02:13:54.401Z,6.47
2023-05-04T02:16:21.615Z,7.70
2023-05-04T02:18:48.685Z,6.60
2023-05-04T02:21:15.722Z,7.07
2023-05-04T02:23:42.691Z,7.10
2023-05-04T02:26:09.612Z,8.15
2023-05-04T02:28:36.561Z,8.43
2023-05-04T02:31:03.581Z,8.48
2023-05-04T02:33:30.516Z,9.10
2023-05-04T02:35:57.564Z,8.60
2023-05-04T02:38:26.352Z,8.35
2023-05-04T02:40:53.328Z,7.75
2023-05-04T02:43:20.284Z,7.43
2023-05-04T02:45:47.214Z,7.47
2023-05-04T02:48:14.213Z,7.40
2023-05-04T02:50:41.296Z,7.05
2023-05-04T02:53:08.296Z,7.35
2023-05-04T02:55:35.378Z,7.63
2023-05-04T02:58:02.399Z,7.28
2023-05-04T03:00:29.402Z,6.90
2023-05-04T03:02:56.526Z,7.20
2023-05-04T03:05:23.618Z,7.40
2023-05-04T03:07:51.336Z,7.60
2023-05-04T03:10:18.431Z,7.50
2023-05-04T03:12:45.685Z,7.70
2023-05-04T03:15:12.620Z,7.32
2023-05-04T03:17:39.682Z,7.47
2023-05-04T03:20:08.241Z,7.28
2023-05-04T03:22:35.508Z,7.80
2023-05-04T03:25:02.520Z,7.65
2023-05-04T03:27:29.428Z,8.05
2023-05-04T03:29:56.344Z,7.82
2023-05-04T03:32:23.369Z,7.68
2023-05-04T03:34:50.548Z,7.53
2023-05-04T03:37:17.649Z,8.02
2023-05-04T03:39:44.673Z,7.97
2023-05-04T03:42:11.587Z,7.68
2023-05-04T03:44:38.793Z,8.00
2023-05-04T03:47:05.756Z,8.10
2023-05-04T03:49:33.985Z,7.55
2023-05-04T03:52:01.039Z,7.57
2023-05-04T03:54:28.044Z,8.00
2023-05-04T03:56:55.170Z,8.40
2023-05-04T03:59:22.092Z,7.63
2023-05-04T04:01:49.096Z,7.43
2023-05-04T04:04:16.252Z,7.78
2023-05-04T04:06:43.632Z,7.30
2023-05-04T04:09:10.588Z,7.75
2023-05-04T04:11:37.585Z,7.45
2023-05-04T04:14:04.557Z,7.75
2023-05-04T04:16:31.556Z,6.95
2023-05-04T04:18:58.508Z,7.18
2023-05-04T04:21:25.654Z,7.78
2023-05-04T04:23:52.570Z,7.60
2023-05-04T04:26:20.848Z,7.88
2023-05-04T04:28:50.755Z,7.28
2023-05-04T04:31:18.800Z,7.75
2023-05-04T04:33:47.610Z,7.55
2023-05-04T04:36:16.952Z,7.82
2023-05-04T04:38:44.651Z,7.20
2023-05-04T04:41:11.981Z,6.93
2023-05-04T04:43:39.189Z,7.63
2023-05-04T04:46:06.242Z,7.47
2023-05-04T04:48:33.152Z,7.22
2023-05-04T04:51:00.216Z,6.22
2023-05-04T04:53:27.179Z,6.55
2023-05-04T04:55:54.838Z,6.13
2023-05-04T04:58:22.151Z,6.25
2023-05-04T05:00:49.246Z,6.18
2023-05-04T05:03:16.396Z,5.95
2023-05-04T05:05:43.498Z,6.50
2023-05-04T05:08:10.750Z,6.15
2023-05-04T05:10:37.670Z,5.95
2023-05-04T05:13:04.898Z,5.60
2023-05-04T05:15:32.011Z,5.43
2023-05-04T05:17:59.074Z,5.82
2023-05-04T05:20:26.347Z,5.22
2023-05-04T05:25:20.372Z,5.50
2023-05-04T05:27:47.344Z,5.40
2023-05-04T05:30:14.779Z,5.18
2023-05-04T05:32:41.960Z,5.43
2023-05-04T05:35:09.616Z,5.22
2023-05-04T05:37:36.599Z,5.10
2023-05-04T05:40:06.867Z,5.13
2023-05-04T05:42:34.179Z,5.00
2023-05-04T05:45:02.073Z,4.85
2023-05-04T05:47:29.104Z,4.78
2023-05-04T05:49:56.692Z,4.90
2023-05-04T05:52:23.861Z,4.43
2023-05-04T05:54:50.804Z,4.30
2023-05-04T05:57:17.830Z,4.20
2023-05-04T05:59:44.941Z,4.18
2023-05-04T06:02:14.934Z,4.15
2023-05-04T06:04:42.955Z,4.22
2023-05-04T06:07:10.017Z,4.22
2023-05-04T06:09:37.148Z,4.10
2023-05-04T06:12:06.583Z,3.95
2023-05-04T06:14:33.817Z,3.85
2023-05-04T06:17:00.853Z,3.88
2023-05-04T06:19:28.520Z,4.07
2023-05-04T06:21:57.395Z,3.70
2023-05-04T06:24:25.330Z,4.00
2023-05-04T06:26:52.307Z,4.30
2023-05-04T06:29:19.299Z,4.22
2023-05-04T06:31:48.371Z,7.75
2023-05-04T06:34:19.215Z,5.93
2023-05-04T06:36:46.174Z,4.20
2023-05-04T06:39:13.248Z,3.72
2023-05-04T06:41:40.196Z,3.97
2023-05-04T06:44:07.310Z,3.83
2023-05-04T06:46:37.533Z,3.50
2023-05-04T06:49:04.759Z,3.28
2023-05-04T06:51:32.182Z,3.40
2023-05-04T06:54:01.173Z,3.20
2023-05-04T06:56:28.147Z,3.60
2023-05-04T06:58:55.167Z,3.22
2023-05-04T07:01:22.261Z,3.65
2023-05-04T07:03:49.609Z,4.07
2023-05-04T07:06:16.533Z,3.53
2023-05-04T07:08:43.549Z,3.75
2023-05-04T07:11:10.641Z,3.10
2023-05-04T07:13:38.767Z,4.20
2023-05-04T07:16:09.327Z,3.53
2023-05-04T07:18:36.575Z,3.97
2023-05-04T07:21:16.663Z,4.10
2023-05-04T07:23:52.273Z,3.60
2023-05-04T07:26:19.420Z,3.53
2023-05-04T07:28:46.923Z,3.10
2023-05-04T07:31:14.632Z,3.30
2023-05-04T07:33:42.003Z,3.22
2023-05-04T07:36:09.024Z,3.13
2023-05-04T07:38:36.756Z,3.05
2023-05-04T07:41:03.737Z,2.65
2023-05-04T07:43:30.646Z,3.03
2023-05-04T07:45:57.708Z,3.42
2023-05-04T07:48:26.395Z,3.05
2023-05-04T07:50:54.244Z,3.58
2023-05-04T07:53:21.625Z,3.08
2023-05-04T07:55:48.762Z,3.00
2023-05-04T07:58:16.828Z,3.00
2023-05-04T08:00:43.895Z,3.38
2023-05-04T08:03:11.109Z,3.20
2023-05-04T08:05:38.142Z,2.92
2023-05-04T08:08:05.297Z,3.35
2023-05-04T08:10:36.976Z,3.15
2023-05-04T08:13:05.561Z,3.40
2023-05-04T08:15:32.668Z,3.35
2023-05-04T08:17:59.859Z,3.28
2023-05-04T08:20:26.911Z,3.30
2023-05-04T08:22:53.934Z,3.08
2023-05-04T08:25:22.446Z,2.70
2023-05-04T08:27:49.826Z,2.67
2023-05-04T08:30:17.305Z,3.13
2023-05-04T08:32:44.359Z,2.67
2023-05-04T08:35:11.313Z,2.78
2023-05-04T08:37:38.289Z,2.70
2023-05-04T08:40:06.021Z,2.65
2023-05-04T08:42:33.513Z,2.60
2023-05-04T08:45:01.223Z,2.83
2023-05-04T08:47:29.474Z,2.45
2023-05-04T08:49:57.006Z,3.05
2023-05-04T08:52:24.759Z,2.85
2023-05-04T08:54:54.975Z,2.92
2023-05-04T08:57:26.268Z,3.10
2023-05-04T08:59:55.422Z,2.85
2023-05-04T09:02:24.813Z,2.63
2023-05-04T09:04:52.909Z,2.90
2023-05-04T09:07:21.592Z,2.50
2023-05-04T09:09:51.001Z,2.70
2023-05-04T09:12:19.367Z,2.50
2023-05-04T09:14:46.892Z,2.78
2023-05-04T09:17:17.862Z,2.50
2023-05-04T09:19:45.163Z,2.60
2023-05-04T09:22:17.420Z,2.35
2023-05-04T09:24:45.430Z,2.70
2023-05-04T09:27:13.895Z,2.30
2023-05-04T09:29:44.512Z,2.50
2023-05-04T09:32:14.467Z,2.15
2023-05-04T09:34:51.779Z,2.35
2023-05-04T09:37:22.751Z,2.35
2023-05-04T09:39:54.114Z,2.60
2023-05-04T09:42:22.480Z,2.50
2023-05-04T09:44:59.729Z,2.63
2023-05-04T09:47:37.107Z,2.35
2023-05-04T09:50:16.216Z,2.50
2023-05-04T09:52:46.923Z,2.88
2023-05-04T09:55:16.872Z,2.55
2023-05-04T09:57:45.661Z,2.15
2023-05-04T10:00:15.746Z,2.28
2023-05-04T10:02:46.867Z,2.47
2023-05-04T10:05:18.734Z,2.60
2023-05-04T10:07:46.637Z,2.25
2023-05-04T10:10:15.264Z,2.63
2023-05-04T10:12:44.759Z,2.42
2023-05-04T10:15:12.531Z,2.15
2023-05-04T10:17:45.581Z,2.50
2023-05-04T10:20:28.592Z,2.17
2023-05-04T10:22:58.328Z,2.60
2023-05-04T10:25:44.216Z,2.22
2023-05-04T10:28:18.558Z,2.45
2023-05-04T10:30:45.762Z,2.30
2023-05-04T10:33:12.883Z,2.25
2023-05-04T10:35:53.575Z,1.83
2023-05-04T10:38:31.812Z,2.30
2023-05-04T10:40:58.816Z,2.33
2023-05-04T10:43:26.453Z,2.33
2023-05-04T10:45:53.571Z,2.38
2023-05-04T10:48:20.702Z,2.45
2023-05-04T10:50:51.069Z,2.53
2023-05-04T10:53:18.723Z,2.70
2023-05-04T10:55:48.897Z,2.40
2023-05-04T10:58:19.307Z,2.10
2023-05-04T11:00:48.116Z,2.30
2023-05-04T11:03:15.749Z,2.22
2023-05-04T11:05:48.608Z,2.53
2023-05-04T11:08:17.424Z,2.13
2023-05-04T11:10:45.808Z,2.33
2023-05-04T11:13:12.790Z,2.45
2023-05-04T11:15:50.308Z,2.25
2023-05-04T11:18:27.960Z,2.60
2023-05-04T11:20:56.352Z,2.25
2023-05-04T11:23:23.538Z,2.22
2023-05-04T11:25:51.029Z,2.00
2023-05-04T11:28:18.346Z,2.25
2023-05-04T11:30:47.788Z,2.30
2023-05-04T11:33:15.868Z,2.72
2023-05-04T11:35:44.389Z,2.22
2023-05-04T11:38:11.621Z,2.63
2023-05-04T11:40:41.205Z,2.30
2023-05-04T11:43:10.835Z,2.08
2023-05-04T11:45:41.929Z,2.05
2023-05-04T11:48:09.724Z,2.15
2023-05-04T11:50:36.902Z,3.92
2023-05-04T11:53:13.990Z,3.30
2023-05-04T11:55:42.051Z,3.38
2023-05-04T11:58:10.819Z,2.72
2023-05-04T12:00:40.167Z,3.10
2023-05-04T12:03:18.220Z,2.33
2023-05-04T12:05:51.563Z,2.17
2023-05-04T12:08:30.529Z,2.28
2023-05-04T12:11:17.095Z,2.63
2023-05-04T12:13:49.190Z,2.38
2023-05-04T12:16:20.427Z,1.85
2023-05-04T12:18:48.476Z,2.10
2023-05-04T12:21:19.700Z,2.22
2023-05-04T12:23:50.190Z,2.42
2023-05-04T12:26:19.545Z,2.20
2023-05-04T12:28:47.406Z,2.30
2023-05-04T12:31:14.462Z,2.25
2023-05-04T12:33:41.575Z,2.17
2023-05-04T12:36:08.883Z,2.15
2023-05-04T12:38:36.071Z,2.00
2023-05-04T12:41:06.205Z,2.35
2023-05-04T12:43:33.786Z,2.22
2023-05-04T12:46:00.885Z,2.08
2023-05-04T12:48:29.278Z,1.90
2023-05-04T12:50:56.478Z,2.08
2023-05-04T12:53:25.974Z,2.08
2023-05-04T12:55:52.948Z,2.05
2023-05-04T12:58:20.088Z,1.92
2023-05-04T13:00:47.273Z,2.03
2023-05-04T13:03:16.581Z,1.98
2023-05-04T13:05:46.807Z,1.80
2023-05-04T13:08:13.810Z,1.95
2023-05-04T13:10:40.852Z,1.90
2023-05-04T13:13:07.847Z,2.40
2023-05-04T13:15:35.270Z,2.10
2023-05-04T13:18:02.315Z,2.25
2023-05-04T13:20:29.589Z,2.38
2023-05-04T13:22:58.320Z,2.30
2023-05-04T13:25:27.099Z,2.22
2023-05-04T13:27:55.584Z,1.90
2023-05-04T13:30:22.700Z,2.38
2023-05-04T13:32:50.504Z,2.00
2023-05-04T13:35:17.652Z,1.80
2023-05-04T13:37:44.603Z,1.70
2023-05-04T13:40:12.332Z,1.90
2023-05-04T13:42:39.426Z,2.00
2023-05-04T13:45:07.244Z,3.60
2023-05-04T13:47:37.435Z,3.08
2023-05-04T13:50:04.929Z,2.83
2023-05-04T13:52:32.446Z,2.13
2023-05-04T13:55:02.618Z,2.28
2023-05-04T13:57:29.891Z,2.00
2023-05-04T14:02:31.408Z,1.55
2023-05-04T14:04:58.921Z,1.80
2023-05-04T14:07:25.927Z,1.98
2023-05-04T14:09:53.130Z,2.03
2023-05-04T14:12:22.437Z,2.88
2023-05-04T14:14:50.879Z,2.10
2023-05-04T14:17:18.392Z,2.42
2023-05-04T14:19:45.903Z,2.28
2023-05-04T14:22:13.083Z,3.95
2023-05-04T14:24:40.060Z,8.13
2023-05-04T14:27:07.317Z,7.03
2023-05-04T14:29:34.564Z,6.18
2023-05-04T14:32:01.815Z,3.03
2023-05-04T14:34:28.908Z,2.40
2023-05-04T14:36:55.935Z,2.22
2023-05-04T14:39:22.883Z,3.10
2023-05-04T14:41:52.455Z,2.80
2023-05-04T14:44:20.598Z,4.32
2023-05-04T14:46:47.635Z,2.42
2023-05-04T14:49:34.785Z,1.85
2023-05-04T14:52:03.233Z,1.98
2023-05-04T14:54:30.188Z,12.27
2023-05-04T14:57:00.342Z,13.98
2023-05-04T14:59:27.351Z,7.85
2023-05-04T15:01:55.415Z,9.82
2023-05-04T15:04:22.870Z,2.47
2023-05-04T15:06:49.969Z,6.18
2023-05-04T15:09:19.220Z,1.73
2023-05-04T15:11:46.445Z,3.90
2023-05-04T15:14:13.520Z,5.63
2023-05-04T15:16:40.656Z,1.90
2023-05-04T15:19:07.901Z,10.90
2023-05-04T15:21:35.021Z,3.00
2023-05-04T15:24:02.171Z,2.60
2023-05-04T15:26:31.169Z,1.80
2023-05-04T15:28:58.473Z,3.60
2023-05-04T15:31:25.623Z,3.90
2023-05-04T15:33:53.379Z,7.97
2023-05-04T15:36:20.533Z,3.58
2023-05-04T15:38:47.744Z,4.15
2023-05-04T15:41:14.899Z,1.70
2023-05-04T15:43:41.918Z,1.65
2023-05-04T15:46:08.913Z,2.10
2023-05-04T15:48:35.963Z,2.20
2023-05-04T15:51:03.155Z,2.78
2023-05-04T15:53:30.083Z,1.85
2023-05-04T15:55:57.133Z,1.45
2023-05-04T15:58:24.048Z,1.80
2023-05-04T16:00:51.199Z,1.90
2023-05-04T16:03:18.252Z,1.52
2023-05-04T16:05:45.195Z,2.35
2023-05-04T16:08:12.190Z,1.50
2023-05-04T16:10:39.405Z,1.50
2023-05-04T16:13:06.804Z,2.20
2023-05-04T16:15:34.732Z,1.80
2023-05-04T16:18:01.983Z,1.60
2023-05-04T16:20:29.391Z,1.80
2023-05-04T16:22:56.467Z,1.80
2023-05-04T16:25:23.596Z,1.70
2023-05-04T16:27:50.666Z,1.75
2023-05-04T16:30:18.178Z,1.40
2023-05-04T16:32:45.195Z,1.77
2023-05-04T16:35:12.253Z,1.80
2023-05-04T16:37:39.389Z,1.63
2023-05-04T16:40:18.914Z,1.65
2023-05-04T16:42:54.941Z,1.98
2023-05-04T16:45:26.212Z,1.80
2023-05-04T16:47:53.318Z,1.70
2023-05-04T16:50:20.582Z,2.10
2023-05-04T16:52:47.980Z,2.22
2023-05-04T16:55:15.194Z,1.80
2023-05-04T16:57:42.580Z,1.95
2023-05-04T17:00:10.570Z,2.33
2023-05-04T17:02:41.270Z,1.80
2023-05-04T17:05:11.526Z,1.90
2023-05-04T17:07:39.928Z,1.40
2023-05-04T17:10:08.477Z,1.70
2023-05-04T17:12:38.662Z,1.70
2023-05-04T17:15:06.568Z,2.17
2023-05-04T17:17:36.990Z,2.10
2023-05-04T17:20:09.793Z,2.08
2023-05-04T17:22:37.279Z,2.55
2023-05-04T17:25:04.505Z,1.73
2023-05-04T17:27:31.509Z,1.70
2023-05-04T17:29:58.520Z,2.00
2023-05-04T17:32:25.571Z,2.05
2023-05-04T17:34:52.765Z,1.70
2023-05-04T17:37:19.908Z,2.00
2023-05-04T17:39:47.345Z,1.85
2023-05-04T17:42:16.039Z,1.30
2023-05-04T17:44:43.153Z,1.67
2023-05-04T17:47:10.362Z,2.05
2023-05-04T17:49:37.566Z,1.77
2023-05-04T17:52:04.820Z,1.98
2023-05-04T17:54:31.810Z,1.92
2023-05-04T17:56:58.771Z,1.88
2023-05-04T17:59:25.726Z,1.73
2023-05-04T18:01:55.812Z,1.63
2023-05-04T18:04:23.019Z,1.80
2023-05-04T18:06:50.974Z,2.08
2023-05-04T18:09:20.995Z,1.80
2023-05-04T18:11:48.415Z,2.10
2023-05-04T18:14:15.764Z,2.03
2023-05-04T18:16:43.026Z,1.92
2023-05-04T18:19:10.108Z,2.10
2023-05-04T18:21:37.812Z,1.88
2023-05-04T18:24:05.086Z,2.33
2023-05-04T18:26:32.156Z,1.85
2023-05-04T18:29:07.476Z,2.35
2023-05-04T18:31:41.027Z,2.55
2023-05-04T18:34:08.251Z,2.22
2023-05-04T18:36:35.319Z,2.92
2023-05-04T18:39:02.322Z,2.10
2023-05-04T18:41:29.286Z,1.90
2023-05-04T18:43:56.430Z,2.08
2023-05-04T18:46:23.573Z,1.60
2023-05-04T18:48:50.699Z,2.03
2023-05-04T18:51:17.947Z,2.13
2023-05-04T18:53:44.922Z,1.70
2023-05-04T18:56:12.104Z,1.88
2023-05-04T18:58:39.477Z,2.00
2023-05-04T19:01:09.611Z,1.80
2023-05-04T19:03:36.969Z,2.00
2023-05-04T19:06:04.136Z,2.08
2023-05-04T19:08:31.484Z,2.10
2023-05-04T19:10:59.450Z,2.17
2023-05-04T19:13:28.492Z,2.03
2023-05-04T19:15:58.746Z,1.70
2023-05-04T19:18:26.085Z,2.25
2023-05-04T19:20:53.253Z,2.28
2023-05-04T19:23:20.638Z,2.33
2023-05-04T19:25:47.888Z,2.38
2023-05-04T19:28:15.298Z,2.33
2023-05-04T19:30:42.379Z,2.20
2023-05-04T19:33:09.855Z,2.05
2023-05-04T19:35:37.411Z,2.15
2023-05-04T19:38:06.849Z,2.20
2023-05-04T19:40:34.938Z,2.33
2023-05-04T19:43:02.096Z,2.30
2023-05-04T19:45:29.228Z,2.10
2023-05-04T19:47:56.671Z,2.15
2023-05-04T19:50:23.894Z,2.05
2023-05-04T19:52:51.815Z,2.60
2023-05-04T19:55:19.133Z,2.17
2023-05-04T19:57:47.846Z,2.20
2023-05-04T20:00:17.243Z,2.55
2023-05-04T20:02:44.285Z,2.47
2023-05-04T20:05:11.589Z,2.50
2023-05-04T20:07:38.846Z,2.40
2023-05-04T20:10:06.370Z,3.00
2023-05-04T20:12:33.571Z,2.15
2023-05-04T20:15:00.619Z,1.90
2023-05-04T20:17:27.895Z,2.20
2023-05-04T20:19:55.016Z,2.25
2023-05-04T20:22:22.445Z,2.50
2023-05-04T20:24:49.639Z,2.25
2023-05-04T20:27:16.635Z,3.83
2023-05-04T20:29:43.666Z,2.60
2023-05-04T20:32:11.346Z,2.78
2023-05-04T20:34:39.784Z,2.78
2023-05-04T20:37:06.867Z,2.55
2023-05-04T20:39:34.156Z,2.30
2023-05-04T20:42:01.539Z,2.25
2023-05-04T20:44:31.840Z,2.45
2023-05-04T20:46:58.947Z,2.40
2023-05-04T20:49:28.983Z,2.33
2023-05-04T20:51:57.136Z,2.65
2023-05-04T20:54:24.499Z,2.50
2023-05-04T20:56:51.616Z,2.70
2023-05-04T20:59:18.612Z,2.58
2023-05-04T21:01:45.858Z,2.90
2023-05-04T21:04:14.995Z,2.60
2023-05-04T21:06:41.914Z,2.53
2023-05-04T21:09:09.124Z,2.40
2023-05-04T21:11:36.343Z,2.53
2023-05-04T21:14:03.472Z,2.70
2023-05-04T21:16:30.516Z,3.20
2023-05-04T21:18:57.425Z,2.97
2023-05-04T21:21:24.449Z,3.85
2023-05-04T21:23:51.534Z,3.28
2023-05-04T21:26:22.163Z,2.90
2023-05-04T21:28:49.247Z,3.13
2023-05-04T21:31:19.216Z,3.33
2023-05-04T21:33:47.672Z,3.05
2023-05-04T21:36:15.307Z,3.50
2023-05-04T21:38:42.892Z,3.25
2023-05-04T21:41:13.996Z,3.40
2023-05-04T21:43:41.474Z,3.28
2023-05-04T21:46:09.139Z,3.20
2023-05-04T21:48:36.518Z,3.28
2023-05-04T21:51:03.530Z,3.58
2023-05-04T21:53:33.481Z,3.60
2023-05-04T21:56:01.647Z,3.50
2023-05-04T21:58:28.998Z,3.40
2023-05-04T22:00:56.290Z,3.85
2023-05-04T22:03:23.349Z,3.90
2023-05-04T22:05:54.596Z,3.97
2023-05-04T22:08:22.214Z,3.90
2023-05-04T22:10:50.666Z,4.10
2023-05-04T22:13:17.704Z,4.18
2023-05-04T22:15:49.958Z,4.50
2023-05-04T22:18:17.687Z,3.72
2023-05-04T22:20:44.838Z,4.30
2023-05-04T22:23:12.123Z,3.95
2023-05-04T22:25:39.664Z,4.15
2023-05-04T22:28:06.855Z,4.40
2023-05-04T22:30:33.983Z,4.28
2023-05-04T22:33:01.080Z,3.75
2023-05-04T22:35:28.231Z,3.95
2023-05-04T22:37:55.220Z,4.13
2023-05-04T22:40:22.625Z,3.97
2023-05-04T22:42:49.571Z,3.60
2023-05-04T22:45:18.460Z,3.90
2023-05-04T22:47:47.002Z,4.07
2023-05-04T22:50:14.354Z,3.90
2023-05-04T22:52:41.523Z,3.90
2023-05-04T22:55:09.502Z,3.90
2023-05-04T22:57:36.894Z,3.80
2023-05-04T23:00:06.069Z,3.97
2023-05-04T23:02:33.892Z,3.70
2023-05-04T23:05:01.562Z,4.35
2023-05-04T23:07:28.797Z,3.55
2023-05-04T23:09:55.745Z,3.85
2023-05-04T23:12:22.877Z,4.20
2023-05-04T23:14:51.619Z,3.63
2023-05-04T23:17:18.970Z,3.72
2023-05-04T23:19:46.238Z,3.70
2023-05-04T23:22:14.239Z,3.47
2023-05-04T23:24:41.322Z,3.30
2023-05-04T23:27:08.527Z,3.92
2023-05-04T23:29:35.721Z,3.30
2023-05-04T23:32:02.788Z,3.67
2023-05-04T23:34:29.888Z,3.83
2023-05-04T23:36:56.806Z,3.90
2023-05-04T23:39:23.749Z,3.70
2023-05-04T23:41:50.917Z,3.60
2023-05-04T23:44:17.956Z,3.47
2023-05-04T23:46:45.243Z,3.65
2023-05-04T23:49:12.163Z,3.45
2023-05-04T23:51:39.097Z,3.40
2023-05-04T23:54:06.992Z,3.60
2023-05-04T23:56:34.028Z,3.10
2023-05-04T23:59:01.017Z,3.35
